Terminal Aerodrome Forecast
Issued by NWS

Home | Current Version | Previous Version | Text Only | Print | Product List | Glossary On
Versions: 1 2 3 4 5 6 7 8 9 10 11 12 13 14 15 16 17 18 19 20 21 22
000
FTUS42 KFFC 210810 AAB
TAFPDK
TAF AMD
KPDK 210810Z 2108/2206 VRB03KT 3/4SM BR OVC002
     FM211300 16005KT 4SM -SHRA BKN007 OVC015
      TEMPO 2115/2119 2SM TSRA SCT007 OVC015CB
     FM212100 12006KT P6SM VCSH BKN025
     FM220000 12003KT 6SM BR BKN008 OVC012=

USA.gov is the U.S. government's official web portal to all federal, state and local government web resources and services.